Pagrindinis puslapis
METAR-TAF:

METAR-TAF

Oro uostai :

Olesiundas, Norvegija

platuma: 62-34N, ilguma: 006-07E, Aukštis: 2 m

Dabartinis oras

Ataskaita buvo paskelbta 16 minutes, ne 13:20 UTC
Vėjas 12 kt iš Šiaurės
Temperatūra 7°C
Drėgmė 45%
Slėgis 1025 hPa
Matomumas 10 km arba daugiau
Mažai debesys ne aukštis 4700 ft
Išsisklaidę debesys ne aukštis 5800 ft

METAR: ENAL 201320Z 01012KT 9999 FEW047 SCT058 07/M04 Q1025

Laikas: 15:36 (13:36 UTC)

Prognozė

Ataskaita buvo paskelbta 2 valandos ir 36 minutes, ne 11:00 UTC
Prognozė galioja nuo 20 metu 12 UTC su 20 metu 21 UTC
Vėjas 15 kt iš Šiaurės/Šiaurės Rytų
Matomumas 10 km arba daugiau
Išsisklaidę debesys ne aukštis 4000 ft
Laikinai
nuo 20 metu 12 UTC su 20 metu 21 UTC
Išsisklaidę debesys ne aukštis 1800 ft, Liūtiniai kamuoliniai debesys.
Su prošvaistėmis ne aukštis 3000 ft
lietus,

TAF: ENAL 201100Z 2012/2021 02015KT 9999 SCT040 TEMPO 2012/2021 SHRA SCT018CB BKN030

Orai ataskaitas ir orų prognozės (METAR, TAF).

turimą stotys yra geltonos ir raudonos taškus žemėlapyje.

Perkelti pele per norėdami pamatyti stoties vardą.

Tada spustelėkite, norėdami matyti oro stebėjimo ir prognozės.

Norėdami pakeisti žemėlapį: spustelėkite ant žalios mygtukų su juodo kryžiaus žemyn,; žalią mygtuką su brūkšneliu, jei norite nutolinti; arba žalių rodyklių gretimoms žemėlapius.


METAR-TAF: